createdAt,value
2019-05-05T00:00:04.910Z,90.47
2019-05-05T00:02:46.662Z,88.52
2019-05-05T00:05:31.460Z,88.88
2019-05-05T00:07:58.210Z,88.74
2019-05-05T00:10:34.743Z,88.35
2019-05-05T00:13:08.875Z,87.97
2019-05-05T00:15:41.507Z,87.81
2019-05-05T00:18:08.293Z,87.66
2019-05-05T00:20:35.051Z,87.26
2019-05-05T00:23:01.846Z,87.13
2019-05-05T00:25:28.611Z,86.53
2019-05-05T00:27:55.381Z,86.82
2019-05-05T00:30:22.167Z,86.72
2019-05-05T00:32:48.918Z,85.01
2019-05-05T00:35:15.689Z,86.86
2019-05-05T00:37:42.458Z,87.36
2019-05-05T00:40:09.290Z,87.70
2019-05-05T00:42:36.038Z,87.56
2019-05-05T00:45:05.427Z,86.89
2019-05-05T00:47:39.117Z,86.67
2019-05-05T00:50:06.285Z,86.69
2019-05-05T00:52:35.068Z,87.56
2019-05-05T00:54:59.806Z,87.21
2019-05-05T00:57:26.571Z,87.44
2019-05-05T00:59:54.349Z,87.47
2019-05-05T01:02:34.229Z,88.37
2019-05-05T01:05:07.762Z,89.44
2019-05-05T01:07:35.098Z,88.84
2019-05-05T01:10:01.281Z,89.24
2019-05-05T01:12:28.036Z,89.93
2019-05-05T01:14:55.358Z,89.66
2019-05-05T01:17:21.574Z,87.12
2019-05-05T01:20:00.304Z,88.53
2019-05-05T01:22:15.118Z,89.72
2019-05-05T01:24:41.950Z,89.90
2019-05-05T01:27:08.707Z,90.58
2019-05-05T01:29:35.515Z,88.41
2019-05-05T01:32:02.323Z,89.59
2019-05-05T01:34:31.406Z,89.60
2019-05-05T01:37:04.885Z,90.11
2019-05-05T01:39:50.643Z,89.39
2019-05-05T01:42:17.394Z,87.85
2019-05-05T01:44:44.771Z,87.66
2019-05-05T01:47:10.918Z,89.15
2019-05-05T01:49:37.710Z,90.00
2019-05-05T01:52:04.495Z,89.30
2019-05-05T01:54:31.230Z,90.63
2019-05-05T01:56:58.003Z,90.44
2019-05-05T01:59:24.974Z,91.23
2019-05-05T02:01:51.602Z,91.30
2019-05-05T02:04:18.358Z,91.27
2019-05-05T02:06:45.109Z,92.20
2019-05-05T02:09:11.926Z,92.55
2019-05-05T02:11:38.715Z,92.46
2019-05-05T02:14:05.476Z,91.38
2019-05-05T02:16:32.246Z,90.08
2019-05-05T02:18:58.986Z,91.07
2019-05-05T02:21:25.744Z,92.47
2019-05-05T02:23:54.552Z,93.56
2019-05-05T02:26:19.270Z,92.97
2019-05-05T02:28:57.964Z,92.36
2019-05-05T02:31:36.395Z,92.48
2019-05-05T02:34:05.433Z,93.06
2019-05-05T02:36:29.934Z,93.13
2019-05-05T02:38:56.928Z,91.85
2019-05-05T02:41:25.425Z,92.43
2019-05-05T02:43:50.302Z,91.34
2019-05-05T02:46:26.247Z,91.15
2019-05-05T02:48:55.056Z,90.40
2019-05-05T02:51:20.282Z,91.22
2019-05-05T02:53:47.563Z,91.27
2019-05-05T02:56:17.803Z,91.88
2019-05-05T02:58:44.611Z,91.65
2019-05-05T03:01:33.896Z,91.31
2019-05-05T03:03:58.570Z,91.06
2019-05-05T03:06:25.318Z,90.20
2019-05-05T03:08:54.139Z,90.50
2019-05-05T03:11:18.842Z,90.33
2019-05-05T03:13:45.615Z,88.84
2019-05-05T03:16:14.180Z,88.64
2019-05-05T03:18:40.515Z,89.46
2019-05-05T03:21:07.528Z,90.06
2019-05-05T03:23:34.006Z,90.03
2019-05-05T03:26:00.783Z,90.83
2019-05-05T03:28:37.597Z,90.97
2019-05-05T03:31:05.140Z,90.64
2019-05-05T03:33:31.095Z,90.65
2019-05-05T03:35:57.851Z,91.19
2019-05-05T03:38:24.847Z,91.70
2019-05-05T03:40:51.350Z,92.05
2019-05-05T03:43:23.660Z,93.13
2019-05-05T03:45:53.821Z,93.11
2019-05-05T03:48:19.846Z,93.40
2019-05-05T03:50:46.627Z,93.75
2019-05-05T03:53:14.050Z,93.10
2019-05-05T03:55:40.162Z,93.06
2019-05-05T03:58:06.983Z,93.34
2019-05-05T04:01:15.112Z,93.26
2019-05-05T04:03:43.512Z,93.38
2019-05-05T04:06:08.674Z,92.99
2019-05-05T04:08:35.456Z,93.06
2019-05-05T04:11:03.910Z,93.57
2019-05-05T04:13:29.497Z,93.53
2019-05-05T04:16:04.010Z,93.94
2019-05-05T04:18:29.950Z,94.62
2019-05-05T04:20:56.710Z,94.38
2019-05-05T04:23:24.574Z,94.90
2019-05-05T04:25:50.222Z,95.25
2019-05-05T04:28:16.974Z,94.84
2019-05-05T04:30:44.479Z,94.99
2019-05-05T04:33:10.510Z,93.47
2019-05-05T04:35:37.276Z,93.91
2019-05-05T04:38:04.933Z,93.24
2019-05-05T04:40:31.526Z,92.34
2019-05-05T04:42:58.354Z,93.04
2019-05-05T04:45:25.137Z,93.52
2019-05-05T04:47:54.106Z,92.43
2019-05-05T04:50:26.602Z,91.33
2019-05-05T04:52:54.081Z,90.34
2019-05-05T04:55:20.362Z,90.17
2019-05-05T04:57:47.134Z,90.89
2019-05-05T05:00:13.917Z,90.85
2019-05-05T05:02:48.417Z,90.24
2019-05-05T05:05:24.528Z,90.12
2019-05-05T05:07:51.194Z,90.05
2019-05-05T05:10:17.962Z,88.40
2019-05-05T05:12:44.715Z,86.97
2019-05-05T05:15:11.463Z,85.47
2019-05-05T05:17:44.286Z,85.50
2019-05-05T05:20:10.092Z,85.35
2019-05-05T05:22:36.838Z,85.44
2019-05-05T05:25:04.467Z,84.75
2019-05-05T05:27:30.422Z,83.73
2019-05-05T05:29:57.190Z,83.45
2019-05-05T05:32:24.726Z,82.54
2019-05-05T05:34:50.686Z,82.68
2019-05-05T05:37:17.471Z,82.57
2019-05-05T05:39:48.454Z,81.02
2019-05-05T05:42:15.191Z,82.78
2019-05-05T05:45:05.442Z,82.63
2019-05-05T05:47:53.600Z,82.11
2019-05-05T05:50:26.675Z,82.82
2019-05-05T05:52:54.069Z,84.05
2019-05-05T05:55:20.185Z,84.29
2019-05-05T05:57:46.946Z,81.65
2019-05-05T06:00:14.501Z,83.11
2019-05-05T06:02:40.494Z,81.75
2019-05-05T06:05:07.292Z,82.19
2019-05-05T06:07:34.046Z,80.69
2019-05-05T06:10:00.824Z,80.50
2019-05-05T06:12:27.583Z,80.21
2019-05-05T06:14:54.376Z,78.66
2019-05-05T06:17:21.135Z,80.17
2019-05-05T06:19:47.952Z,78.49
2019-05-05T06:22:27.841Z,78.32
2019-05-05T06:24:43.771Z,78.80
2019-05-05T06:27:08.471Z,77.67
2019-05-05T06:29:35.259Z,78.22
2019-05-05T06:32:03.871Z,78.17
2019-05-05T06:34:28.795Z,79.27
2019-05-05T06:36:55.550Z,75.57
2019-05-05T06:39:24.040Z,75.33
2019-05-05T06:42:00.742Z,74.73
2019-05-05T06:44:33.812Z,74.90
2019-05-05T06:47:01.555Z,73.88
2019-05-05T06:49:31.070Z,74.25
2019-05-05T06:51:55.207Z,76.32
2019-05-05T06:54:23.843Z,75.79
2019-05-05T06:56:48.738Z,73.09
2019-05-05T06:59:15.507Z,72.69
2019-05-05T07:01:44.145Z,74.39
2019-05-05T07:04:09.030Z,74.78
2019-05-05T07:06:35.842Z,75.64
2019-05-05T07:09:05.462Z,73.33
2019-05-05T07:11:31.031Z,71.29
2019-05-05T07:13:57.806Z,72.00
2019-05-05T07:16:24.643Z,73.32
2019-05-05T07:18:51.391Z,75.36
2019-05-05T07:21:18.174Z,70.00
2019-05-05T07:23:44.974Z,71.78
2019-05-05T07:26:11.747Z,71.99
2019-05-05T07:28:38.530Z,69.11
2019-05-05T07:31:05.360Z,69.95
2019-05-05T07:33:34.358Z,69.80
2019-05-05T07:36:06.139Z,68.81
2019-05-05T07:38:33.766Z,68.17
2019-05-05T07:40:58.742Z,69.34
2019-05-05T07:43:25.506Z,69.07
2019-05-05T07:45:54.023Z,67.49
2019-05-05T07:48:19.015Z,66.59
2019-05-05T07:50:58.202Z,68.88
2019-05-05T07:53:17.505Z,65.70
2019-05-05T07:55:39.362Z,70.12
2019-05-05T07:58:06.107Z,65.07
2019-05-05T08:00:34.285Z,68.23
2019-05-05T08:02:59.618Z,66.23
2019-05-05T08:05:26.479Z,66.02
2019-05-05T08:07:53.943Z,66.08
2019-05-05T08:10:20.037Z,63.05
2019-05-05T08:12:46.777Z,61.98
2019-05-05T08:15:14.762Z,66.11
2019-05-05T08:17:50.076Z,65.87
2019-05-05T08:20:21.105Z,59.51
2019-05-05T08:22:47.864Z,60.40
2019-05-05T08:25:33.578Z,59.21
2019-05-05T08:27:54.022Z,60.08
2019-05-05T08:30:26.082Z,62.78
2019-05-05T08:32:54.501Z,57.17
2019-05-05T08:35:19.631Z,58.83
2019-05-05T08:37:46.398Z,61.84
2019-05-05T08:40:14.784Z,59.94
2019-05-05T08:42:39.940Z,59.43
2019-05-05T08:45:06.739Z,58.83
2019-05-05T08:47:34.578Z,60.98
2019-05-05T08:50:00.313Z,63.63
2019-05-05T08:52:27.090Z,60.03
2019-05-05T08:54:54.251Z,55.76
2019-05-05T08:57:20.678Z,58.50
2019-05-05T08:59:47.426Z,60.23
2019-05-05T09:02:14.964Z,60.04
2019-05-05T09:04:41.005Z,61.31
2019-05-05T09:07:07.782Z,56.92
2019-05-05T09:09:34.550Z,56.27
2019-05-05T09:12:01.334Z,53.50
2019-05-05T09:14:28.098Z,59.27
2019-05-05T09:16:54.940Z,54.55
2019-05-05T09:19:23.827Z,56.12
2019-05-05T09:21:48.532Z,58.11
2019-05-05T09:24:21.074Z,54.72
2019-05-05T09:26:58.206Z,58.21
2019-05-05T09:29:28.344Z,57.02
2019-05-05T09:31:55.099Z,55.57
2019-05-05T09:34:23.897Z,54.95
2019-05-05T09:36:48.634Z,52.35
2019-05-05T09:39:15.421Z,54.73
2019-05-05T09:41:44.447Z,55.96
2019-05-05T09:44:08.980Z,52.62
2019-05-05T09:46:35.729Z,52.16
2019-05-05T09:49:04.578Z,50.64
2019-05-05T09:51:29.223Z,53.01
2019-05-05T09:53:55.980Z,54.33
2019-05-05T09:56:23.618Z,53.35
2019-05-05T09:58:49.595Z,50.39
2019-05-05T10:01:16.330Z,51.34
2019-05-05T10:03:44.677Z,48.04
2019-05-05T10:06:09.818Z,51.47
2019-05-05T10:08:36.654Z,52.74
2019-05-05T10:11:04.089Z,49.80
2019-05-05T10:13:30.155Z,51.99
2019-05-05T10:15:56.882Z,51.71
2019-05-05T10:18:25.521Z,55.13
2019-05-05T10:20:50.392Z,57.66
2019-05-05T10:23:17.150Z,55.37
2019-05-05T10:25:46.622Z,57.90
2019-05-05T10:28:13.635Z,54.83
2019-05-05T10:30:40.131Z,56.95
2019-05-05T10:33:06.890Z,56.28
2019-05-05T10:35:34.447Z,57.21
2019-05-05T10:38:00.522Z,54.47
2019-05-05T10:40:29.640Z,56.37
2019-05-05T10:42:56.391Z,55.38
2019-05-05T10:45:24.509Z,54.55
2019-05-05T10:47:49.912Z,58.67
2019-05-05T10:50:16.654Z,55.49
2019-05-05T10:52:44.283Z,53.61
2019-05-05T10:55:10.134Z,57.73
2019-05-05T10:57:36.870Z,56.50
2019-05-05T11:00:11.938Z,54.18
2019-05-05T11:02:30.500Z,54.28
2019-05-05T11:04:57.286Z,54.72
2019-05-05T11:07:24.023Z,58.61
2019-05-05T11:09:50.766Z,57.95
2019-05-05T11:12:17.494Z,58.04
2019-05-05T11:14:44.430Z,55.15
2019-05-05T11:17:10.982Z,55.32
2019-05-05T11:19:37.722Z,53.14
2019-05-05T11:22:04.474Z,54.58
2019-05-05T11:24:31.310Z,55.38
2019-05-05T11:26:58.041Z,56.37
2019-05-05T11:29:24.786Z,57.19
2019-05-05T11:31:51.522Z,49.93
2019-05-05T11:34:21.717Z,53.88
2019-05-05T11:36:55.614Z,51.16
2019-05-05T11:39:23.523Z,53.24
2019-05-05T11:41:49.084Z,51.54
2019-05-05T11:44:15.870Z,52.64
2019-05-05T11:46:44.279Z,55.00
2019-05-05T11:49:09.969Z,58.70
2019-05-05T11:51:36.724Z,58.16
2019-05-05T11:54:04.621Z,57.33
2019-05-05T11:56:30.514Z,54.83
2019-05-05T11:58:57.250Z,52.91
2019-05-05T12:01:24.445Z,56.60
2019-05-05T12:03:50.865Z,53.55
2019-05-05T12:06:17.742Z,51.00
2019-05-05T12:08:57.867Z,52.55
2019-05-05T12:11:24.722Z,56.32
2019-05-05T12:13:54.443Z,54.91
2019-05-05T12:16:24.930Z,55.68
2019-05-05T12:18:53.451Z,56.32
2019-05-05T12:21:18.485Z,51.68
2019-05-05T12:23:45.206Z,52.54
2019-05-05T12:26:31.580Z,50.05
2019-05-05T12:29:08.331Z,49.33
2019-05-05T12:31:36.594Z,49.88
2019-05-05T12:34:04.026Z,49.15
2019-05-05T12:36:30.359Z,48.34
2019-05-05T12:38:57.182Z,50.69
2019-05-05T12:41:24.084Z,55.95
2019-05-05T12:43:50.686Z,51.68
2019-05-05T12:46:38.898Z,51.95
2019-05-05T12:49:06.116Z,53.45
2019-05-05T12:51:34.295Z,55.06
2019-05-05T12:53:59.654Z,57.56
2019-05-05T12:56:26.413Z,56.88
2019-05-05T12:58:54.554Z,55.79
2019-05-05T13:01:21.774Z,60.03
2019-05-05T13:03:48.615Z,59.81
2019-05-05T13:06:15.434Z,59.26
2019-05-05T13:08:44.366Z,57.50
2019-05-05T13:11:08.898Z,56.32
2019-05-05T13:13:35.650Z,57.19
2019-05-05T13:16:04.278Z,54.10
2019-05-05T13:18:29.134Z,58.10
2019-05-05T13:21:18.318Z,58.59
2019-05-05T13:23:53.888Z,54.27
2019-05-05T13:26:25.936Z,54.98
2019-05-05T13:28:54.254Z,53.31
2019-05-05T13:31:21.771Z,49.57
2019-05-05T13:33:46.302Z,52.73
2019-05-05T13:36:13.780Z,51.80
2019-05-05T13:38:39.783Z,51.87
2019-05-05T13:41:06.622Z,52.35
2019-05-05T13:43:34.208Z,53.58
2019-05-05T13:46:05.393Z,54.60
2019-05-05T13:48:33.788Z,55.24
2019-05-05T13:51:01.330Z,58.22
2019-05-05T13:53:28.093Z,58.36
2019-05-05T13:56:08.556Z,55.54
2019-05-05T13:58:21.593Z,54.63
2019-05-05T14:00:48.433Z,54.66
2019-05-05T14:03:15.194Z,54.10
2019-05-05T14:05:43.707Z,56.46
2019-05-05T14:08:08.705Z,56.07
2019-05-05T14:10:35.422Z,56.54
2019-05-05T14:13:03.725Z,56.62
2019-05-05T14:15:28.967Z,56.22
2019-05-05T14:17:55.823Z,57.82
2019-05-05T14:20:23.963Z,54.99
2019-05-05T14:22:51.267Z,57.70
2019-05-05T14:25:19.872Z,55.42
2019-05-05T14:27:46.608Z,54.76
2019-05-05T14:30:18.267Z,53.65
2019-05-05T14:32:45.099Z,53.05
2019-05-05T14:35:18.902Z,54.79
2019-05-05T14:37:49.674Z,54.46
2019-05-05T14:40:16.409Z,52.65
2019-05-05T14:42:43.544Z,53.52
2019-05-05T14:45:09.943Z,51.20
2019-05-05T14:47:36.692Z,51.79
2019-05-05T14:50:04.661Z,51.41
2019-05-05T14:52:30.378Z,53.16
2019-05-05T14:54:57.142Z,50.55
2019-05-05T14:57:27.329Z,51.46
2019-05-05T14:59:54.442Z,52.87
2019-05-05T15:02:21.178Z,52.89
2019-05-05T15:04:47.889Z,52.41
2019-05-05T15:07:23.793Z,51.41
2019-05-05T15:09:54.636Z,50.66
2019-05-05T15:12:28.195Z,52.43
2019-05-05T15:14:54.926Z,52.02
2019-05-05T15:17:21.706Z,54.88
2019-05-05T15:19:48.466Z,53.53
2019-05-05T15:22:15.239Z,50.41
2019-05-05T15:24:44.021Z,53.33
2019-05-05T15:27:08.802Z,53.74
2019-05-05T15:29:35.555Z,51.17
2019-05-05T15:32:04.216Z,52.98
2019-05-05T15:34:29.078Z,52.42
2019-05-05T15:36:55.852Z,50.45
2019-05-05T15:39:24.416Z,52.73
2019-05-05T15:41:49.344Z,52.29
2019-05-05T15:44:16.141Z,54.45
2019-05-05T15:46:44.233Z,52.29
2019-05-05T15:49:09.586Z,53.28
2019-05-05T15:51:36.366Z,50.89
2019-05-05T15:54:03.907Z,50.80
2019-05-05T15:56:29.849Z,50.09
2019-05-05T15:58:56.623Z,51.23
2019-05-05T16:01:23.777Z,53.68
2019-05-05T16:03:50.125Z,51.15
2019-05-05T16:06:16.838Z,50.83
2019-05-05T16:08:44.499Z,50.13
2019-05-05T16:11:10.441Z,51.39
2019-05-05T16:13:37.258Z,48.12
2019-05-05T16:16:23.700Z,51.31
2019-05-05T16:19:05.532Z,49.38
2019-05-05T16:21:36.423Z,49.80
2019-05-05T16:24:07.810Z,47.81
2019-05-05T16:26:34.530Z,48.43
2019-05-05T16:29:01.271Z,48.68
2019-05-05T16:31:27.994Z,51.06
2019-05-05T16:33:54.733Z,49.04
2019-05-05T16:36:21.462Z,52.10
2019-05-05T16:38:48.211Z,54.27
2019-05-05T16:41:15.399Z,52.79
2019-05-05T16:43:41.766Z,53.81
2019-05-05T16:46:08.492Z,54.25
2019-05-05T16:48:35.241Z,55.28
2019-05-05T16:51:03.370Z,55.76
2019-05-05T16:53:34.564Z,57.25
2019-05-05T16:56:01.134Z,54.90
2019-05-05T16:58:27.875Z,55.01
2019-05-05T17:00:54.664Z,55.66
2019-05-05T17:03:21.395Z,55.74
2019-05-05T17:05:48.137Z,56.27
2019-05-05T17:08:14.874Z,57.43
2019-05-05T17:10:43.396Z,57.78
2019-05-05T17:13:15.380Z,57.41
2019-05-05T17:15:50.094Z,59.71
2019-05-05T17:18:32.834Z,60.32
2019-05-05T17:20:55.557Z,60.44
2019-05-05T17:23:23.738Z,61.48
2019-05-05T17:25:49.167Z,58.52
2019-05-05T17:28:15.937Z,59.41
2019-05-05T17:30:43.627Z,61.65
2019-05-05T17:33:09.501Z,62.77
2019-05-05T17:35:36.248Z,62.50
2019-05-05T17:38:07.659Z,63.51
2019-05-05T17:40:40.262Z,62.08
2019-05-05T17:43:24.963Z,64.61
2019-05-05T17:45:55.090Z,64.93
2019-05-05T17:48:27.278Z,63.25
2019-05-05T17:51:15.464Z,64.65
2019-05-05T17:54:03.677Z,64.71
2019-05-05T17:56:30.402Z,64.04
2019-05-05T17:58:57.122Z,63.51
2019-05-05T18:01:23.922Z,64.18
2019-05-05T18:03:50.610Z,61.51
2019-05-05T18:06:26.826Z,60.26
2019-05-05T18:08:58.226Z,62.34
2019-05-05T18:11:44.072Z,64.14
2019-05-05T18:14:14.501Z,65.06
2019-05-05T18:16:39.411Z,65.43
2019-05-05T18:19:06.171Z,68.50
2019-05-05T18:21:34.822Z,71.19
2019-05-05T18:23:59.806Z,70.30
2019-05-05T18:26:26.543Z,71.07
2019-05-05T18:28:54.055Z,70.92
2019-05-05T18:31:20.148Z,71.04
2019-05-05T18:33:46.870Z,70.20
2019-05-05T18:36:14.185Z,70.15
2019-05-05T18:38:40.362Z,71.33
2019-05-05T18:41:10.761Z,71.62
2019-05-05T18:43:45.462Z,71.58
2019-05-05T18:46:13.635Z,72.91
2019-05-05T18:48:38.968Z,72.05
2019-05-05T18:51:05.763Z,73.45
2019-05-05T18:53:34.192Z,74.11
2019-05-05T18:55:59.250Z,73.96
2019-05-05T18:58:28.136Z,74.98
2019-05-05T19:00:58.709Z,73.88
2019-05-05T19:03:28.838Z,71.34
2019-05-05T19:06:01.502Z,71.36
2019-05-05T19:08:31.712Z,71.09
2019-05-05T19:10:58.456Z,70.91
2019-05-05T19:13:25.182Z,71.58
2019-05-05T19:15:53.550Z,72.73
2019-05-05T19:18:18.721Z,73.04
2019-05-05T19:20:51.264Z,72.20
2019-05-05T19:23:17.998Z,73.57
2019-05-05T19:25:45.129Z,73.89
2019-05-05T19:28:14.111Z,74.27
2019-05-05T19:30:38.623Z,73.74
2019-05-05T19:33:05.433Z,74.59
2019-05-05T19:35:43.587Z,76.87
2019-05-05T19:37:58.918Z,77.34
2019-05-05T19:40:25.663Z,78.41
2019-05-05T19:42:53.866Z,79.53
2019-05-05T19:45:19.177Z,76.82
2019-05-05T19:47:45.921Z,77.12
2019-05-05T19:50:18.227Z,77.96
2019-05-05T19:52:46.649Z,77.75
2019-05-05T19:55:13.676Z,78.06
2019-05-05T19:57:38.669Z,76.81
2019-05-05T20:00:05.519Z,75.98
2019-05-05T20:02:34.110Z,75.35
2019-05-05T20:04:59.082Z,74.53
2019-05-05T20:07:25.814Z,76.32
2019-05-05T20:09:54.373Z,76.61
2019-05-05T20:12:19.294Z,76.85
2019-05-05T20:14:46.115Z,76.87
2019-05-05T20:17:17.887Z,77.27
2019-05-05T20:19:44.750Z,78.33
2019-05-05T20:22:11.607Z,77.21
2019-05-05T20:24:38.342Z,77.74
2019-05-05T20:27:05.081Z,76.95
2019-05-05T20:29:35.069Z,75.71
2019-05-05T20:31:58.574Z,75.59
2019-05-05T20:34:31.487Z,75.31
2019-05-05T20:37:04.459Z,73.61
2019-05-05T20:39:30.782Z,74.49
2019-05-05T20:41:57.506Z,74.17
2019-05-05T20:44:24.699Z,76.52
2019-05-05T20:46:50.979Z,73.98
2019-05-05T20:49:17.723Z,71.73
2019-05-05T20:51:44.525Z,75.27
2019-05-05T20:54:11.274Z,77.17
2019-05-05T20:56:38.015Z,77.35
2019-05-05T20:59:04.766Z,78.69
2019-05-05T21:01:31.496Z,78.35
2019-05-05T21:03:58.238Z,78.45
2019-05-05T21:06:24.975Z,78.93
2019-05-05T21:08:51.904Z,80.36
2019-05-05T21:11:18.634Z,78.59
2019-05-05T21:13:45.394Z,78.20
2019-05-05T21:16:14.171Z,79.33
2019-05-05T21:18:38.874Z,79.94
2019-05-05T21:21:06.287Z,80.12
2019-05-05T21:23:37.073Z,79.97
2019-05-05T21:26:06.746Z,78.00
2019-05-05T21:28:33.677Z,79.36
2019-05-05T21:31:00.259Z,80.52
2019-05-05T21:33:27.066Z,79.74
2019-05-05T21:35:55.123Z,79.90
2019-05-05T21:38:20.630Z,80.90
2019-05-05T21:40:47.422Z,80.21
2019-05-05T21:43:15.348Z,78.91
2019-05-05T21:45:40.910Z,81.00
2019-05-05T21:48:07.662Z,81.31
2019-05-05T21:50:37.761Z,82.58
2019-05-05T21:53:09.678Z,83.31
2019-05-05T21:55:43.914Z,79.23
2019-05-05T21:58:15.666Z,78.20
2019-05-05T22:00:48.298Z,79.08
2019-05-05T22:03:18.362Z,79.87
2019-05-05T22:05:45.114Z,80.61
2019-05-05T22:08:11.841Z,81.47
2019-05-05T22:10:38.591Z,82.37
2019-05-05T22:13:05.326Z,82.47
2019-05-05T22:15:33.901Z,82.30
2019-05-05T22:17:58.810Z,83.48
2019-05-05T22:20:29.644Z,82.01
2019-05-05T22:22:56.477Z,81.58
2019-05-05T22:25:23.219Z,82.94
2019-05-05T22:27:49.931Z,83.12
2019-05-05T22:30:16.677Z,83.44
2019-05-05T22:32:44.143Z,81.22
2019-05-05T22:35:10.162Z,79.32
2019-05-05T22:37:36.901Z,77.79
2019-05-05T22:40:03.664Z,79.55
2019-05-05T22:42:30.370Z,77.12
2019-05-05T22:44:57.142Z,77.88
2019-05-05T22:47:23.862Z,77.52
2019-05-05T22:49:50.614Z,77.93
2019-05-05T22:52:17.346Z,77.50
2019-05-05T22:54:44.468Z,77.30
2019-05-05T22:57:10.826Z,77.00
2019-05-05T22:59:37.567Z,76.69
2019-05-05T23:02:04.295Z,77.54
2019-05-05T23:04:35.262Z,78.61
2019-05-05T23:07:07.310Z,78.90
2019-05-05T23:09:34.042Z,80.45
2019-05-05T23:12:00.794Z,80.49
2019-05-05T23:14:27.534Z,78.43
2019-05-05T23:16:54.978Z,79.45
2019-05-05T23:19:25.598Z,79.42
2019-05-05T23:21:54.323Z,78.35
2019-05-05T23:24:28.222Z,78.54
2019-05-05T23:26:55.002Z,79.14
2019-05-05T23:29:21.723Z,78.46
2019-05-05T23:31:48.521Z,79.32
2019-05-05T23:34:15.254Z,77.81
2019-05-05T23:36:43.991Z,77.65
2019-05-05T23:39:08.733Z,77.38
2019-05-05T23:41:35.672Z,77.86
2019-05-05T23:44:03.679Z,76.33
2019-05-05T23:46:29.498Z,79.47
2019-05-05T23:48:56.217Z,80.44
2019-05-05T23:51:24.277Z,80.27
2019-05-05T23:53:49.766Z,77.59
2019-05-05T23:56:16.506Z,78.25
2019-05-05T23:58:44.085Z,79.89
